createdAt,value
2022-09-24T00:01:38.574Z,7.20
2022-09-24T00:04:08.626Z,6.90
2022-09-24T00:06:40.968Z,8.73
2022-09-24T00:09:08.761Z,6.68
2022-09-24T00:11:35.665Z,7.78
2022-09-24T00:14:02.829Z,8.80
2022-09-24T00:16:32.962Z,7.80
2022-09-24T00:19:00.628Z,7.40
2022-09-24T00:21:30.059Z,7.53
2022-09-24T00:24:02.353Z,6.75
2022-09-24T00:26:47.847Z,5.93
2022-09-24T00:29:21.436Z,7.30
2022-09-24T00:31:49.974Z,8.07
2022-09-24T00:34:17.992Z,7.80
2022-09-24T00:36:46.411Z,7.35
2022-09-24T00:39:13.747Z,7.85
2022-09-24T00:41:47.097Z,8.00
2022-09-24T00:44:45.287Z,7.85
2022-09-24T00:47:19.255Z,6.68
2022-09-24T00:49:48.333Z,6.88
2022-09-24T00:52:16.668Z,5.63
2022-09-24T00:54:45.418Z,7.50
2022-09-24T00:57:13.199Z,7.30
2022-09-24T00:59:42.267Z,7.65
2022-09-24T01:02:09.542Z,8.80
2022-09-24T01:04:36.997Z,7.07
2022-09-24T01:07:04.142Z,7.30
2022-09-24T01:09:31.147Z,8.63
2022-09-24T01:12:20.626Z,6.57
2022-09-24T01:15:30.645Z,6.47
2022-09-24T01:18:03.238Z,5.60
2022-09-24T01:20:57.555Z,5.90
2022-09-24T01:23:33.471Z,9.35
2022-09-24T01:26:28.869Z,8.25
2022-09-24T01:29:24.158Z,6.20
2022-09-24T01:32:14.655Z,5.60
2022-09-24T01:34:47.866Z,6.22
2022-09-24T01:37:17.422Z,6.28
2022-09-24T01:39:46.938Z,7.00
2022-09-24T01:42:14.819Z,6.55
2022-09-24T01:44:44.423Z,6.00
2022-09-24T01:47:18.630Z,7.07
2022-09-24T01:49:46.040Z,6.40
2022-09-24T01:52:18.762Z,5.60
2022-09-24T01:54:51.923Z,5.80
2022-09-24T01:57:23.764Z,6.90
2022-09-24T02:00:05.396Z,6.47
2022-09-24T02:03:10.471Z,6.15
2022-09-24T02:05:50.534Z,7.53
2022-09-24T02:08:22.319Z,5.80
2022-09-24T02:10:57.946Z,5.20
2022-09-24T02:13:28.384Z,7.88
2022-09-24T02:16:00.131Z,5.78
2022-09-24T02:18:33.601Z,6.47
2022-09-24T02:21:03.903Z,5.85
2022-09-24T02:23:33.273Z,6.63
2022-09-24T02:26:03.296Z,6.35
2022-09-24T02:28:32.337Z,7.03
2022-09-24T02:31:27.270Z,7.25
2022-09-24T02:34:13.689Z,6.43
2022-09-24T02:36:42.110Z,6.65
2022-09-24T02:39:08.837Z,5.40
2022-09-24T02:41:36.884Z,6.35
2022-09-24T02:44:03.686Z,6.10
2022-09-24T02:46:30.488Z,5.75
2022-09-24T02:48:57.699Z,6.60
2022-09-24T02:51:24.604Z,6.90
2022-09-24T02:53:51.442Z,6.13
2022-09-24T02:56:18.580Z,6.75
2022-09-24T02:58:45.266Z,5.65
2022-09-24T03:01:12.192Z,6.45
2022-09-24T03:03:38.929Z,6.07
2022-09-24T03:06:06.561Z,5.82
2022-09-24T03:08:33.559Z,7.40
2022-09-24T03:11:00.943Z,5.57
2022-09-24T03:13:27.726Z,7.22
2022-09-24T03:15:54.592Z,4.60
2022-09-24T03:18:21.506Z,5.20
2022-09-24T03:20:59.624Z,5.93
2022-09-24T03:23:26.855Z,4.68
2022-09-24T03:25:54.500Z,6.22
2022-09-24T03:28:21.973Z,6.97
2022-09-24T03:31:00.861Z,6.40
2022-09-24T03:33:33.832Z,5.32
2022-09-24T03:36:01.963Z,5.25
2022-09-24T03:38:29.828Z,6.22
2022-09-24T03:41:00.225Z,6.43
2022-09-24T03:43:27.130Z,4.93
2022-09-24T03:45:54.322Z,5.25
2022-09-24T03:48:22.724Z,5.30
2022-09-24T03:50:50.322Z,5.75
2022-09-24T03:53:18.282Z,4.78
2022-09-24T03:55:47.265Z,5.75
2022-09-24T03:58:15.700Z,5.72
2022-09-24T04:00:42.994Z,5.25
2022-09-24T04:03:10.559Z,7.47
2022-09-24T04:05:38.159Z,6.25
2022-09-24T04:08:06.266Z,6.10
2022-09-24T04:10:33.168Z,4.65
2022-09-24T04:13:00.317Z,5.13
2022-09-24T04:15:27.512Z,4.80
2022-09-24T04:17:57.197Z,5.20
2022-09-24T04:20:26.639Z,4.85
2022-09-24T04:22:56.137Z,8.82
2022-09-24T04:25:24.622Z,7.13
2022-09-24T04:27:56.898Z,5.68
2022-09-24T04:30:25.549Z,4.97
2022-09-24T04:32:52.862Z,6.55
2022-09-24T04:35:22.032Z,5.45
2022-09-24T04:37:49.272Z,4.80
2022-09-24T04:40:16.470Z,4.43
2022-09-24T04:42:47.346Z,6.53
2022-09-24T04:45:20.085Z,4.88
2022-09-24T04:47:52.616Z,5.20
2022-09-24T04:50:20.429Z,4.53
2022-09-24T04:52:53.243Z,4.05
2022-09-24T04:55:23.339Z,5.90
2022-09-24T04:57:51.313Z,4.75
2022-09-24T05:00:20.723Z,4.70
2022-09-24T05:02:48.585Z,5.57
2022-09-24T05:05:15.684Z,6.05
2022-09-24T05:07:44.596Z,6.45
2022-09-24T05:10:11.955Z,5.90
2022-09-24T05:12:40.966Z,6.35
2022-09-24T05:15:08.183Z,6.10
2022-09-24T05:17:39.045Z,7.13
2022-09-24T05:20:07.371Z,7.32
2022-09-24T05:22:34.153Z,4.70
2022-09-24T05:25:00.864Z,5.45
2022-09-24T05:27:27.720Z,5.70
2022-09-24T05:29:55.281Z,5.35
2022-09-24T05:32:22.080Z,6.00
2022-09-24T05:34:50.829Z,5.68
2022-09-24T05:37:18.458Z,6.38
2022-09-24T05:39:45.421Z,6.45
2022-09-24T05:42:15.529Z,5.03
2022-09-24T05:44:49.809Z,5.47
2022-09-24T05:49:45.560Z,9.13
2022-09-24T05:52:12.996Z,6.95
2022-09-24T05:54:39.789Z,7.50
2022-09-24T05:57:06.624Z,7.70
2022-09-24T05:59:33.446Z,9.60
2022-09-24T06:02:00.308Z,6.90
2022-09-24T06:04:27.927Z,7.63
2022-09-24T06:06:54.735Z,7.50
2022-09-24T06:09:21.698Z,9.68
2022-09-24T06:11:51.067Z,7.55
2022-09-24T06:14:17.916Z,9.50
2022-09-24T06:16:44.811Z,8.68
2022-09-24T06:19:12.062Z,10.57
2022-09-24T06:21:38.844Z,10.75
2022-09-24T06:24:05.802Z,9.65
2022-09-24T06:26:33.231Z,10.80
2022-09-24T06:29:05.002Z,11.52
2022-09-24T06:31:32.778Z,10.38
2022-09-24T06:34:00.442Z,7.15
2022-09-24T06:36:27.182Z,7.88
2022-09-24T06:38:53.908Z,6.55
2022-09-24T06:41:20.790Z,7.10
2022-09-24T06:43:47.585Z,5.00
2022-09-24T06:46:15.749Z,5.63
2022-09-24T06:48:42.869Z,6.25
2022-09-24T06:51:09.689Z,4.90
2022-09-24T06:53:36.737Z,5.15
2022-09-24T06:56:04.355Z,5.68
2022-09-24T06:58:31.214Z,8.70
2022-09-24T07:01:01.512Z,5.70
2022-09-24T07:03:33.551Z,6.75
2022-09-24T07:06:02.784Z,5.63
2022-09-24T07:08:30.070Z,5.03
2022-09-24T07:10:57.071Z,4.60
2022-09-24T07:13:23.980Z,6.50
2022-09-24T07:15:52.772Z,5.55
2022-09-24T07:18:20.561Z,4.60
2022-09-24T07:20:52.851Z,4.82
2022-09-24T07:23:20.072Z,6.15
2022-09-24T07:25:48.370Z,5.45
2022-09-24T07:28:21.637Z,7.07
2022-09-24T07:30:57.423Z,4.07
2022-09-24T07:33:24.264Z,10.00
2022-09-24T07:35:51.132Z,5.88
2022-09-24T07:38:17.969Z,11.10
2022-09-24T07:40:44.896Z,5.57
2022-09-24T07:43:13.987Z,6.78
2022-09-24T07:45:42.520Z,7.13
2022-09-24T07:48:10.621Z,6.78
2022-09-24T07:50:41.905Z,7.13
2022-09-24T07:53:12.685Z,7.95
2022-09-24T07:55:40.890Z,7.30
2022-09-24T07:58:15.054Z,5.70
2022-09-24T08:00:42.247Z,6.32
2022-09-24T08:03:09.072Z,5.68
2022-09-24T08:05:35.856Z,5.28
2022-09-24T08:08:02.730Z,7.07
2022-09-24T08:10:29.528Z,5.65
2022-09-24T08:12:57.179Z,5.18
2022-09-24T08:15:24.222Z,5.70
2022-09-24T08:17:51.258Z,6.22
2022-09-24T08:20:19.316Z,6.75
2022-09-24T08:22:46.087Z,5.25
2022-09-24T08:25:12.764Z,4.30
2022-09-24T08:27:39.619Z,5.03
2022-09-24T08:30:07.240Z,5.75
2022-09-24T08:32:34.085Z,5.18
2022-09-24T08:35:00.887Z,7.55
2022-09-24T08:37:29.013Z,5.97
2022-09-24T08:39:55.944Z,6.82
2022-09-24T08:42:44.322Z,4.68
2022-09-24T08:45:29.975Z,4.88
2022-09-24T08:48:02.231Z,4.90
2022-09-24T08:50:31.642Z,6.80
2022-09-24T08:53:32.422Z,6.43
2022-09-24T08:56:00.672Z,6.53
2022-09-24T08:58:46.037Z,5.55
2022-09-24T09:01:12.864Z,7.47
2022-09-24T09:03:40.148Z,5.63
2022-09-24T09:06:09.545Z,6.00
2022-09-24T09:09:08.118Z,7.75
2022-09-24T09:11:37.037Z,7.10
2022-09-24T09:14:18.958Z,6.05
2022-09-24T09:17:12.534Z,6.25
2022-09-24T09:19:41.516Z,6.88
2022-09-24T09:22:15.058Z,7.40
2022-09-24T09:24:50.593Z,6.60
2022-09-24T09:27:19.077Z,8.35
2022-09-24T09:29:56.128Z,6.43
2022-09-24T09:32:28.697Z,7.07
2022-09-24T09:34:59.079Z,8.13
2022-09-24T09:37:58.338Z,5.35
2022-09-24T09:40:32.235Z,6.22
2022-09-24T09:43:02.844Z,5.20
2022-09-24T09:45:44.583Z,5.40
2022-09-24T09:48:14.157Z,6.00
2022-09-24T09:50:46.215Z,5.68
2022-09-24T09:53:24.678Z,5.22
2022-09-24T09:55:57.432Z,4.60
2022-09-24T09:58:31.165Z,5.97
2022-09-24T10:01:31.809Z,4.63
2022-09-24T10:04:03.344Z,4.38
2022-09-24T10:06:35.499Z,4.22
2022-09-24T10:09:20.111Z,5.32
2022-09-24T10:11:47.657Z,5.13
2022-09-24T10:14:22.002Z,6.57
2022-09-24T10:16:55.102Z,6.13
2022-09-24T10:19:26.185Z,4.72
2022-09-24T10:21:57.653Z,5.25
2022-09-24T10:24:27.486Z,7.35
2022-09-24T10:26:55.504Z,6.90
2022-09-24T10:29:52.580Z,4.55
2022-09-24T10:32:31.807Z,4.35
2022-09-24T10:35:09.141Z,5.72
2022-09-24T10:37:36.974Z,5.35
2022-09-24T10:40:18.287Z,4.30
2022-09-24T10:42:56.091Z,3.92
2022-09-24T10:45:30.818Z,4.65
2022-09-24T10:48:24.464Z,5.22
2022-09-24T10:51:15.413Z,5.18
2022-09-24T10:54:00.570Z,6.03
2022-09-24T10:56:45.970Z,4.85
2022-09-24T10:59:23.437Z,7.03
2022-09-24T11:01:59.974Z,6.03
2022-09-24T11:04:46.719Z,6.38
2022-09-24T11:07:35.211Z,5.63
2022-09-24T11:10:18.078Z,7.20
2022-09-24T11:12:48.916Z,5.32
2022-09-24T11:15:44.396Z,5.43
2022-09-24T11:18:50.004Z,6.55
2022-09-24T11:21:32.141Z,7.03
2022-09-24T11:24:28.165Z,5.03
2022-09-24T11:27:31.206Z,5.35
2022-09-24T11:30:16.685Z,4.85
2022-09-24T11:33:23.193Z,8.50
2022-09-24T11:36:14.207Z,5.75
2022-09-24T11:39:13.882Z,5.32
2022-09-24T11:41:59.657Z,5.85
2022-09-24T11:45:08.802Z,6.55
2022-09-24T11:48:06.148Z,6.32
2022-09-24T11:51:13.145Z,6.13
2022-09-24T11:54:20.951Z,6.60
2022-09-24T11:56:59.686Z,7.50
2022-09-24T11:59:40.321Z,5.75
2022-09-24T12:02:29.524Z,5.82
2022-09-24T12:05:30.297Z,5.68
2022-09-24T12:07:59.390Z,6.95
2022-09-24T12:10:44.154Z,5.45
2022-09-24T12:13:23.164Z,6.57
2022-09-24T12:15:56.814Z,6.47
2022-09-24T12:18:39.225Z,5.13
2022-09-24T12:21:12.752Z,5.70
2022-09-24T12:23:44.727Z,5.28
2022-09-24T12:26:17.474Z,5.88
2022-09-24T12:29:40.738Z,5.90
2022-09-24T12:32:56.908Z,6.13
2022-09-24T12:35:46.628Z,5.85
2022-09-24T12:38:47.481Z,6.78
2022-09-24T12:41:27.919Z,6.80
2022-09-24T12:44:11.541Z,6.07
2022-09-24T12:46:43.740Z,6.03
2022-09-24T12:49:25.610Z,6.10
2022-09-24T12:52:05.475Z,5.80
2022-09-24T12:54:38.349Z,6.05
2022-09-24T12:57:25.325Z,6.72
2022-09-24T12:59:59.192Z,5.75
2022-09-24T13:02:43.360Z,6.55
2022-09-24T13:05:28.892Z,5.05
2022-09-24T13:08:03.941Z,6.13
2022-09-24T13:10:36.891Z,6.28
2022-09-24T13:13:22.914Z,6.28
2022-09-24T13:16:04.670Z,6.70
2022-09-24T13:18:37.276Z,6.65
2022-09-24T13:21:08.511Z,6.32
2022-09-24T13:23:38.962Z,5.65
2022-09-24T13:26:09.463Z,5.28
2022-09-24T13:28:51.635Z,5.50
2022-09-24T13:31:22.227Z,5.85
2022-09-24T13:34:10.492Z,5.32
2022-09-24T13:36:44.580Z,5.70
2022-09-24T13:39:44.272Z,4.55
2022-09-24T13:42:49.089Z,5.60
2022-09-24T13:45:23.040Z,5.55
2022-09-24T13:48:04.781Z,5.68
2022-09-24T13:50:38.021Z,5.70
2022-09-24T13:53:22.781Z,6.40
2022-09-24T13:55:57.692Z,6.05
2022-09-24T13:58:35.163Z,5.30
2022-09-24T14:01:13.128Z,6.25
2022-09-24T14:03:42.316Z,5.50
2022-09-24T14:06:13.550Z,5.97
2022-09-24T14:08:46.837Z,5.47
2022-09-24T14:11:24.727Z,5.88
2022-09-24T14:13:52.220Z,5.72
2022-09-24T14:16:21.724Z,6.20
2022-09-24T14:18:49.184Z,6.88
2022-09-24T14:21:24.581Z,5.97
2022-09-24T14:23:57.143Z,6.37
2022-09-24T14:26:29.129Z,5.28
2022-09-24T14:28:58.295Z,6.35
2022-09-24T14:31:25.410Z,6.60
2022-09-24T14:33:52.639Z,6.47
2022-09-24T14:36:27.614Z,6.22
2022-09-24T14:39:01.763Z,5.97
2022-09-24T14:41:32.680Z,5.47
2022-09-24T14:44:04.198Z,7.65
2022-09-24T14:46:49.973Z,6.32
2022-09-24T14:49:17.694Z,7.00
2022-09-24T14:51:53.178Z,9.82
2022-09-24T14:54:27.543Z,16.33
2022-09-24T14:56:55.155Z,13.50
2022-09-24T14:59:32.012Z,15.48
2022-09-24T15:02:15.781Z,7.97
2022-09-24T15:04:48.834Z,7.00
2022-09-24T15:07:24.075Z,7.03
2022-09-24T15:09:53.228Z,7.18
2022-09-24T15:12:32.281Z,6.32
2022-09-24T15:15:03.190Z,7.00
2022-09-24T15:17:35.385Z,7.93
2022-09-24T15:20:04.107Z,6.88
2022-09-24T15:22:31.802Z,6.68
2022-09-24T15:25:02.013Z,7.82
2022-09-24T15:27:32.225Z,7.47
2022-09-24T15:30:01.753Z,7.20
2022-09-24T15:32:35.169Z,7.47
2022-09-24T15:35:07.613Z,8.23
2022-09-24T15:37:38.394Z,7.85
2022-09-24T15:40:10.193Z,8.00
2022-09-24T15:42:39.201Z,7.80
2022-09-24T15:45:15.952Z,8.10
2022-09-24T15:47:43.001Z,7.85
2022-09-24T15:50:11.662Z,8.93
2022-09-24T15:52:47.486Z,9.60
2022-09-24T15:55:18.286Z,9.65
2022-09-24T15:57:47.087Z,9.65
2022-09-24T16:00:25.583Z,10.48
2022-09-24T16:02:57.157Z,10.25
2022-09-24T16:05:25.346Z,10.85
2022-09-24T16:07:54.806Z,11.27
2022-09-24T16:10:21.729Z,10.45
2022-09-24T16:12:48.777Z,12.70
2022-09-24T16:15:17.425Z,13.07
2022-09-24T16:17:45.097Z,12.40
2022-09-24T16:20:12.295Z,15.60
2022-09-24T16:22:39.063Z,16.15
2022-09-24T16:25:06.487Z,16.80
2022-09-24T16:27:36.036Z,19.13
2022-09-24T16:30:04.254Z,19.35
2022-09-24T16:32:31.016Z,19.23
2022-09-24T16:34:58.293Z,19.50
2022-09-24T16:37:26.030Z,17.75
2022-09-24T16:39:53.692Z,19.40
2022-09-24T16:42:21.074Z,22.00
2022-09-24T16:44:48.931Z,25.00
2022-09-24T16:47:17.820Z,23.33
2022-09-24T16:49:49.864Z,20.85
2022-09-24T16:52:17.533Z,22.73
2022-09-24T16:54:45.347Z,19.85
2022-09-24T16:57:13.371Z,20.42
2022-09-24T16:59:40.724Z,21.63
2022-09-24T17:02:09.391Z,23.88
2022-09-24T17:04:37.482Z,23.40
2022-09-24T17:07:04.873Z,25.13
2022-09-24T17:09:50.956Z,22.08
2022-09-24T17:12:18.178Z,25.50
2022-09-24T17:14:45.639Z,26.05
2022-09-24T17:17:14.638Z,21.63
2022-09-24T17:19:41.992Z,22.70
2022-09-24T17:22:09.346Z,25.15
2022-09-24T17:24:40.217Z,26.65
2022-09-24T17:27:08.259Z,27.48
2022-09-24T17:29:35.527Z,27.33
2022-09-24T17:32:03.165Z,27.35
2022-09-24T17:34:30.623Z,24.60
2022-09-24T17:36:59.940Z,24.10
2022-09-24T17:39:27.995Z,20.40
2022-09-24T17:41:55.149Z,28.85
2022-09-24T17:44:22.702Z,31.05
2022-09-24T17:46:49.769Z,29.80
2022-09-24T17:49:16.680Z,31.10
2022-09-24T17:51:45.158Z,31.00
2022-09-24T17:54:14.426Z,26.95
2022-09-24T17:56:42.107Z,30.10
2022-09-24T17:59:10.840Z,33.05
2022-09-24T18:01:39.672Z,29.25
2022-09-24T18:04:10.458Z,35.05
2022-09-24T18:06:39.334Z,32.78
2022-09-24T18:09:06.655Z,33.35
2022-09-24T18:11:39.186Z,32.70
2022-09-24T18:14:05.991Z,36.35
2022-09-24T18:16:33.840Z,35.22
2022-09-24T18:19:02.298Z,27.67
2022-09-24T18:21:30.036Z,27.63
2022-09-24T18:23:59.353Z,28.23
2022-09-24T18:26:29.455Z,25.25
2022-09-24T18:28:58.512Z,30.80
2022-09-24T18:31:28.194Z,27.65
2022-09-24T18:33:57.209Z,32.83
2022-09-24T18:36:27.981Z,30.85
2022-09-24T18:38:56.411Z,29.45
2022-09-24T18:41:28.419Z,26.98
2022-09-24T18:43:58.732Z,36.17
2022-09-24T18:46:28.530Z,38.33
2022-09-24T18:48:57.067Z,39.03
2022-09-24T18:51:26.143Z,35.17
2022-09-24T18:54:04.189Z,32.72
2022-09-24T18:56:31.956Z,35.47
2022-09-24T18:59:09.348Z,31.95
2022-09-24T19:01:38.264Z,31.08
2022-09-24T19:04:06.243Z,30.05
2022-09-24T19:06:35.413Z,32.83
2022-09-24T19:09:04.636Z,33.97
2022-09-24T19:11:32.561Z,31.90
2022-09-24T19:14:00.527Z,42.97
2022-09-24T19:16:34.501Z,38.05
2022-09-24T19:19:27.977Z,40.90
2022-09-24T19:21:59.714Z,44.00
2022-09-24T19:27:23.707Z,42.85
2022-09-24T19:30:01.449Z,43.90
2022-09-24T19:32:32.166Z,40.08
2022-09-24T19:35:00.463Z,40.22
2022-09-24T19:37:29.647Z,35.58
2022-09-24T19:40:05.626Z,31.67
2022-09-24T19:42:42.703Z,38.92
2022-09-24T19:45:26.544Z,41.95
2022-09-24T19:47:55.030Z,32.75
2022-09-24T19:50:25.489Z,33.95
2022-09-24T19:52:59.052Z,36.00
2022-09-24T19:55:30.542Z,32.88
2022-09-24T19:57:58.824Z,33.03
2022-09-24T20:00:29.450Z,39.78
2022-09-24T20:03:01.105Z,39.20
2022-09-24T20:05:28.959Z,39.85
2022-09-24T20:07:56.944Z,41.72
2022-09-24T20:10:24.935Z,39.47
2022-09-24T20:12:54.729Z,33.50
2022-09-24T20:15:25.102Z,36.92
2022-09-24T20:17:53.895Z,31.83
2022-09-24T20:20:21.654Z,38.92
2022-09-24T20:22:50.441Z,37.28
2022-09-24T20:25:18.463Z,40.47
2022-09-24T20:27:52.653Z,37.78
2022-09-24T20:30:24.366Z,39.85
2022-09-24T20:32:51.743Z,33.67
2022-09-24T20:35:19.182Z,35.60
2022-09-24T20:37:48.500Z,36.63
2022-09-24T20:40:16.118Z,37.15
2022-09-24T20:42:46.080Z,33.50
2022-09-24T20:45:13.744Z,37.38
2022-09-24T20:47:42.612Z,35.20
2022-09-24T20:50:13.050Z,37.30
2022-09-24T20:52:50.031Z,31.98
2022-09-24T20:55:17.794Z,37.20
2022-09-24T20:57:45.322Z,32.58
2022-09-24T21:00:15.254Z,34.00
2022-09-24T21:02:49.677Z,30.75
2022-09-24T21:05:44.183Z,35.90
2022-09-24T21:08:17.075Z,34.00
2022-09-24T21:10:46.719Z,37.22
2022-09-24T21:13:13.791Z,30.00
2022-09-24T21:15:40.612Z,35.17
2022-09-24T21:18:22.171Z,35.97
2022-09-24T21:20:49.826Z,28.98
2022-09-24T21:23:16.516Z,30.45
2022-09-24T21:25:54.515Z,28.23
2022-09-24T21:28:21.708Z,32.25
2022-09-24T21:31:03.406Z,30.65
2022-09-24T21:33:31.192Z,30.13
2022-09-24T21:36:01.139Z,29.02
2022-09-24T21:38:28.223Z,28.10
2022-09-24T21:41:02.798Z,24.35
2022-09-24T21:43:34.577Z,24.70
2022-09-24T21:46:06.672Z,21.10
2022-09-24T21:48:34.229Z,18.27
2022-09-24T21:51:09.435Z,17.70
2022-09-24T21:53:37.843Z,16.52
2022-09-24T21:56:05.846Z,19.00
2022-09-24T21:58:32.991Z,17.13
2022-09-24T22:01:04.327Z,17.40
2022-09-24T22:03:47.918Z,15.93
2022-09-24T22:06:38.924Z,16.10
2022-09-24T22:09:07.154Z,15.02
2022-09-24T22:11:35.023Z,14.20
2022-09-24T22:14:02.827Z,14.20
2022-09-24T22:16:31.895Z,16.45
2022-09-24T22:19:00.417Z,16.08
2022-09-24T22:21:28.097Z,14.57
2022-09-24T22:23:55.835Z,13.80
2022-09-24T22:26:22.848Z,11.20
2022-09-24T22:28:49.606Z,12.68
2022-09-24T22:31:17.691Z,12.32
2022-09-24T22:34:03.850Z,14.02
2022-09-24T22:36:32.676Z,12.25
2022-09-24T22:39:01.255Z,11.15
2022-09-24T22:41:30.066Z,11.68
2022-09-24T22:43:57.663Z,13.70
2022-09-24T22:46:28.225Z,11.32
2022-09-24T22:48:56.324Z,11.45
2022-09-24T22:51:25.003Z,12.80
2022-09-24T22:53:53.408Z,14.10
2022-09-24T22:56:22.874Z,13.55
2022-09-24T22:58:57.950Z,15.23
2022-09-24T23:01:27.339Z,13.35
2022-09-24T23:03:55.853Z,12.48
2022-09-24T23:06:23.667Z,9.82
2022-09-24T23:08:53.025Z,10.18
2022-09-24T23:11:29.125Z,9.75
2022-09-24T23:14:01.704Z,9.65
2022-09-24T23:16:34.301Z,9.98
2022-09-24T23:19:04.303Z,9.20
2022-09-24T23:21:32.571Z,13.07
2022-09-24T23:24:13.197Z,11.93
2022-09-24T23:26:40.124Z,13.55
2022-09-24T23:29:07.082Z,12.93
2022-09-24T23:31:35.823Z,13.50
2022-09-24T23:34:04.039Z,16.83
2022-09-24T23:36:32.407Z,9.80
2022-09-24T23:39:00.344Z,20.45
2022-09-24T23:41:28.913Z,8.02
2022-09-24T23:43:56.005Z,11.57
2022-09-24T23:46:22.985Z,9.43
2022-09-24T23:48:49.917Z,11.55
2022-09-24T23:51:16.725Z,8.45
2022-09-24T23:53:43.526Z,9.02
2022-09-24T23:56:12.182Z,8.30
2022-09-24T23:58:39.336Z,11.68
